createdAt,value
2023-03-04T00:01:54.259Z,2.23
2023-03-04T00:04:20.797Z,2.05
2023-03-04T00:06:48.375Z,2.04
2023-03-04T00:09:14.852Z,2.05
2023-03-04T00:11:41.355Z,2.04
2023-03-04T00:14:07.789Z,1.98
2023-03-04T00:16:34.439Z,2.37
2023-03-04T00:19:00.920Z,2.03
2023-03-04T00:21:27.420Z,2.04
2023-03-04T00:23:53.958Z,2.19
2023-03-04T00:26:20.369Z,2.01
2023-03-04T00:28:47.444Z,1.95
2023-03-04T00:31:14.165Z,1.93
2023-03-04T00:33:40.811Z,1.96
2023-03-04T00:36:07.572Z,1.85
2023-03-04T00:38:34.008Z,1.78
2023-03-04T00:41:02.064Z,1.55
2023-03-04T00:43:29.761Z,1.67
2023-03-04T00:45:56.524Z,1.67
2023-03-04T00:48:23.278Z,1.61
2023-03-04T00:50:51.790Z,1.68
2023-03-04T00:53:18.365Z,1.69
2023-03-04T00:55:44.823Z,1.49
2023-03-04T00:58:11.344Z,1.51
2023-03-04T01:00:37.834Z,1.52
2023-03-04T01:03:04.355Z,1.64
2023-03-04T01:05:32.108Z,1.36
2023-03-04T01:07:58.965Z,1.33
2023-03-04T01:10:27.653Z,1.29
2023-03-04T01:12:54.094Z,1.33
2023-03-04T01:15:20.645Z,1.45
2023-03-04T01:17:47.181Z,1.55
2023-03-04T01:20:15.226Z,1.25
2023-03-04T01:22:41.784Z,1.26
2023-03-04T01:25:09.047Z,1.28
2023-03-04T01:27:35.635Z,1.29
2023-03-04T01:30:02.259Z,1.14
2023-03-04T01:32:29.551Z,1.18
2023-03-04T01:34:56.128Z,1.13
2023-03-04T01:37:23.020Z,1.08
2023-03-04T01:39:49.497Z,1.07
2023-03-04T01:42:20.542Z,1.02
2023-03-04T01:44:47.318Z,1.11
2023-03-04T01:47:14.521Z,1.08
2023-03-04T01:49:41.167Z,1.11
2023-03-04T01:52:12.071Z,1.11
2023-03-04T01:54:38.898Z,1.14
2023-03-04T01:57:16.278Z,1.07
2023-03-04T01:59:43.088Z,1.14
2023-03-04T02:02:09.604Z,1.01
2023-03-04T02:04:36.795Z,0.92
2023-03-04T02:07:03.994Z,0.90
2023-03-04T02:09:31.829Z,0.97
2023-03-04T02:11:58.627Z,1.02
2023-03-04T02:14:25.273Z,0.94
2023-03-04T02:16:52.375Z,0.97
2023-03-04T02:19:24.952Z,0.96
2023-03-04T02:21:51.449Z,0.86
2023-03-04T02:24:23.077Z,0.64
2023-03-04T02:26:49.560Z,0.76
2023-03-04T02:29:17.246Z,0.72
2023-03-04T02:31:45.883Z,0.64
2023-03-04T02:34:14.851Z,0.75
2023-03-04T02:36:42.376Z,0.71
2023-03-04T02:39:12.594Z,0.68
2023-03-04T02:41:39.428Z,0.73
2023-03-04T02:44:16.830Z,0.60
2023-03-04T02:46:43.406Z,0.55
2023-03-04T02:49:09.907Z,0.57
2023-03-04T02:51:36.374Z,0.56
2023-03-04T02:54:02.859Z,0.40
2023-03-04T02:56:29.393Z,0.48
2023-03-04T02:58:55.834Z,0.29
2023-03-04T03:01:22.525Z,0.28
2023-03-04T03:03:49.212Z,0.18
2023-03-04T03:06:15.933Z,0.43
2023-03-04T03:08:42.524Z,0.45
2023-03-04T03:11:09.365Z,0.47
2023-03-04T03:13:36.885Z,0.28
2023-03-04T03:16:04.040Z,0.18
2023-03-04T03:18:30.767Z,0.30
2023-03-04T03:20:57.409Z,0.34
2023-03-04T03:23:24.341Z,0.47
2023-03-04T03:25:51.729Z,0.40
2023-03-04T03:28:18.156Z,0.32
2023-03-04T03:30:44.661Z,1.49
2023-03-04T03:33:11.271Z,0.86
2023-03-04T03:35:38.093Z,0.60
2023-03-04T03:38:04.712Z,0.32
2023-03-04T03:40:31.152Z,0.03
2023-03-04T03:42:57.645Z,0.15
2023-03-04T03:45:24.130Z,0.00
2023-03-04T03:47:50.577Z,0.16
2023-03-04T03:50:17.126Z,0.14
2023-03-04T03:52:43.653Z,0.13
2023-03-04T03:55:10.129Z,0.12
2023-03-04T03:57:36.531Z,0.04
2023-03-04T04:00:03.995Z,-0.01
2023-03-04T04:02:40.061Z,0.10
2023-03-04T04:05:07.768Z,0.16
2023-03-04T04:07:34.343Z,0.14
2023-03-04T04:10:00.921Z,0.07
2023-03-04T04:12:27.462Z,0.03
2023-03-04T04:14:54.009Z,0.08
2023-03-04T04:17:20.497Z,0.19
2023-03-04T04:19:46.994Z,0.13
2023-03-04T04:22:15.112Z,0.10
2023-03-04T04:24:41.632Z,0.05
2023-03-04T04:27:08.100Z,-0.08
2023-03-04T04:29:34.507Z,-0.24
2023-03-04T04:32:00.971Z,-0.39
2023-03-04T04:34:27.545Z,-0.36
2023-03-04T04:36:54.066Z,-0.45
2023-03-04T04:39:20.578Z,-0.30
2023-03-04T04:41:47.073Z,-0.48
2023-03-04T04:44:13.738Z,-0.33
2023-03-04T04:46:40.365Z,-0.24
2023-03-04T04:49:07.324Z,-0.10
2023-03-04T04:51:34.683Z,-0.23
2023-03-04T04:54:01.852Z,-0.42
2023-03-04T04:56:28.877Z,-0.63
2023-03-04T04:58:57.602Z,-0.64
2023-03-04T05:01:24.517Z,-0.73
2023-03-04T05:03:53.184Z,-0.81
2023-03-04T05:06:20.430Z,-0.88
2023-03-04T05:08:47.120Z,-0.88
2023-03-04T05:11:13.641Z,-0.78
2023-03-04T05:13:40.602Z,-0.76
2023-03-04T05:16:07.424Z,-0.70
2023-03-04T05:18:34.148Z,-0.56
2023-03-04T05:21:01.645Z,-0.84
2023-03-04T05:23:29.120Z,-0.90
2023-03-04T05:25:55.616Z,-0.83
2023-03-04T05:28:22.065Z,-0.92
2023-03-04T05:30:48.701Z,-0.85
2023-03-04T05:33:16.415Z,-0.79
2023-03-04T05:35:43.521Z,-0.73
2023-03-04T05:38:11.284Z,-0.73
2023-03-04T05:40:38.899Z,-0.88
2023-03-04T05:43:05.697Z,-0.88
2023-03-04T05:45:32.227Z,-0.98
2023-03-04T05:47:58.667Z,-0.97
2023-03-04T05:50:25.322Z,-0.97
2023-03-04T05:52:52.543Z,-0.89
2023-03-04T05:55:19.548Z,-0.90
2023-03-04T05:57:46.412Z,-0.52
2023-03-04T06:00:13.896Z,-0.32
2023-03-04T06:02:41.336Z,-0.36
2023-03-04T06:05:08.252Z,0.22
2023-03-04T06:07:35.055Z,0.38
2023-03-04T06:10:03.704Z,-0.08
2023-03-04T06:12:30.183Z,0.00
2023-03-04T06:14:56.693Z,0.29
2023-03-04T06:17:23.318Z,0.14
2023-03-04T06:19:49.756Z,0.33
2023-03-04T06:22:16.279Z,0.71
2023-03-04T06:24:42.759Z,0.76
2023-03-04T06:27:09.274Z,1.02
2023-03-04T06:29:35.699Z,1.19
2023-03-04T06:32:02.310Z,1.25
2023-03-04T06:34:29.887Z,1.60
2023-03-04T06:36:56.348Z,1.93
2023-03-04T06:39:22.851Z,2.05
2023-03-04T06:41:49.276Z,2.34
2023-03-04T06:44:15.864Z,2.79
2023-03-04T06:46:42.428Z,2.71
2023-03-04T06:49:09.133Z,3.05
2023-03-04T06:51:35.842Z,3.50
2023-03-04T06:54:02.409Z,3.32
2023-03-04T06:56:28.915Z,3.11
2023-03-04T06:58:55.459Z,2.73
2023-03-04T07:01:23.745Z,3.25
2023-03-04T07:03:50.766Z,3.28
2023-03-04T07:06:18.164Z,3.79
2023-03-04T07:08:44.980Z,4.16
2023-03-04T07:11:11.477Z,4.42
2023-03-04T07:13:40.671Z,4.46
2023-03-04T07:16:08.776Z,4.91
2023-03-04T07:18:35.497Z,5.84
2023-03-04T07:21:02.060Z,6.01
2023-03-04T07:23:28.804Z,5.83
2023-03-04T07:25:55.389Z,6.37
2023-03-04T07:28:22.079Z,6.20
2023-03-04T07:30:48.521Z,6.15
2023-03-04T07:33:15.117Z,6.30
2023-03-04T07:35:41.764Z,7.62
2023-03-04T07:38:08.283Z,8.20
2023-03-04T07:40:34.925Z,8.35
2023-03-04T07:43:01.495Z,8.10
2023-03-04T07:45:28.205Z,7.83
2023-03-04T07:47:54.915Z,7.99
2023-03-04T07:50:22.436Z,7.23
2023-03-04T07:52:50.882Z,7.73
2023-03-04T07:55:18.194Z,6.99
2023-03-04T07:57:46.261Z,7.74
2023-03-04T08:00:14.355Z,7.70
2023-03-04T08:02:40.975Z,8.25
2023-03-04T08:05:07.628Z,7.43
2023-03-04T08:07:34.120Z,7.69
2023-03-04T08:10:00.788Z,6.65
2023-03-04T08:12:28.040Z,8.12
2023-03-04T08:14:54.472Z,9.09
2023-03-04T08:17:20.987Z,9.07
2023-03-04T08:19:47.436Z,9.05
2023-03-04T08:22:13.867Z,9.02
2023-03-04T08:24:40.322Z,9.56
2023-03-04T08:27:06.783Z,8.69
2023-03-04T08:29:33.300Z,9.82
2023-03-04T08:31:59.863Z,10.27
2023-03-04T08:34:27.560Z,8.76
2023-03-04T08:36:54.157Z,9.70
2023-03-04T08:39:20.778Z,9.67
2023-03-04T08:41:47.750Z,9.30
2023-03-04T08:44:14.587Z,9.60
2023-03-04T08:46:41.922Z,10.32
2023-03-04T08:49:08.917Z,9.56
2023-03-04T08:51:35.851Z,10.16
2023-03-04T08:54:03.451Z,11.01
2023-03-04T08:56:30.404Z,10.30
2023-03-04T08:58:56.918Z,10.92
2023-03-04T09:01:23.524Z,12.25
2023-03-04T09:03:50.133Z,12.21
2023-03-04T09:06:17.782Z,11.83
2023-03-04T09:08:45.021Z,12.06
2023-03-04T09:11:11.925Z,11.91
2023-03-04T09:13:38.629Z,12.30
2023-03-04T09:16:09.917Z,13.08
2023-03-04T09:18:36.709Z,13.73
2023-03-04T09:21:03.348Z,14.07
2023-03-04T09:23:29.862Z,13.94
2023-03-04T09:25:56.355Z,13.70
2023-03-04T09:28:22.797Z,13.49
2023-03-04T09:30:49.264Z,13.20
2023-03-04T09:33:16.200Z,14.54
2023-03-04T09:35:43.183Z,14.93
2023-03-04T09:38:09.850Z,16.51
2023-03-04T09:40:41.696Z,15.58
2023-03-04T09:43:12.850Z,14.80
2023-03-04T09:45:45.746Z,14.82
2023-03-04T09:48:17.447Z,15.10
2023-03-04T09:50:49.958Z,15.24
2023-03-04T09:53:16.517Z,14.84
2023-03-04T09:55:47.078Z,15.76
2023-03-04T09:58:32.400Z,15.75
2023-03-04T10:01:05.112Z,14.88
2023-03-04T10:03:52.134Z,14.90
2023-03-04T10:06:20.529Z,15.82
2023-03-04T10:08:52.652Z,15.86
2023-03-04T10:11:28.572Z,15.74
2023-03-04T10:14:13.254Z,15.89
2023-03-04T10:16:42.732Z,16.09
2023-03-04T10:19:15.454Z,15.82
2023-03-04T10:21:43.440Z,16.32
2023-03-04T10:24:14.650Z,16.26
2023-03-04T10:26:44.420Z,16.49
2023-03-04T10:29:18.325Z,16.76
2023-03-04T10:31:45.712Z,16.39
2023-03-04T10:34:13.536Z,16.80
2023-03-04T10:36:46.189Z,16.83
2023-03-04T10:39:17.689Z,16.73
2023-03-04T10:41:46.183Z,17.56
2023-03-04T10:44:16.435Z,17.25
2023-03-04T10:46:46.206Z,17.42
2023-03-04T10:49:15.071Z,17.52
2023-03-04T10:51:45.036Z,18.16
2023-03-04T10:54:25.890Z,18.16
2023-03-04T10:57:00.292Z,18.24
2023-03-04T10:59:40.865Z,17.51
2023-03-04T11:02:27.605Z,17.46
2023-03-04T11:05:19.799Z,18.14
2023-03-04T11:07:57.118Z,17.76
2023-03-04T11:10:31.824Z,17.68
2023-03-04T11:12:58.283Z,18.26
2023-03-04T11:15:27.447Z,18.17
2023-03-04T11:17:59.157Z,18.62
2023-03-04T11:20:33.953Z,17.62
2023-03-04T11:23:04.574Z,18.04
2023-03-04T11:25:33.653Z,18.67
2023-03-04T11:28:12.756Z,17.76
2023-03-04T11:30:51.883Z,17.82
2023-03-04T11:33:27.584Z,17.85
2023-03-04T11:35:59.837Z,18.35
2023-03-04T11:38:46.556Z,18.18
2023-03-04T11:41:39.408Z,18.12
2023-03-04T11:44:06.660Z,17.76
2023-03-04T11:46:52.812Z,17.97
2023-03-04T11:49:49.958Z,17.43
2023-03-04T11:52:21.059Z,18.47
2023-03-04T11:55:07.940Z,18.46
2023-03-04T11:57:44.775Z,18.89
2023-03-04T12:00:11.250Z,18.65
2023-03-04T12:02:40.355Z,18.57
2023-03-04T12:05:27.951Z,18.68
2023-03-04T12:07:54.359Z,18.55
2023-03-04T12:10:33.941Z,17.98
2023-03-04T12:13:35.425Z,18.55
2023-03-04T12:16:11.915Z,18.71
2023-03-04T12:18:57.291Z,18.28
2023-03-04T12:21:37.229Z,18.11
2023-03-04T12:24:04.360Z,18.89
2023-03-04T12:26:36.721Z,19.12
2023-03-04T12:29:03.160Z,19.02
2023-03-04T12:31:35.415Z,18.98
2023-03-04T12:34:17.327Z,19.66
2023-03-04T12:36:50.398Z,19.77
2023-03-04T12:39:26.055Z,20.09
2023-03-04T12:41:52.514Z,19.57
2023-03-04T12:44:20.299Z,18.25
2023-03-04T12:46:56.185Z,18.81
2023-03-04T12:49:28.593Z,19.53
2023-03-04T12:52:03.117Z,19.69
2023-03-04T12:54:45.242Z,19.89
2023-03-04T12:57:23.543Z,19.97
2023-03-04T13:00:09.089Z,20.16
2023-03-04T13:02:54.305Z,19.01
2023-03-04T13:05:32.401Z,18.94
2023-03-04T13:08:02.240Z,18.64
2023-03-04T13:10:28.826Z,18.97
2023-03-04T13:12:56.908Z,19.07
2023-03-04T13:15:28.359Z,19.37
2023-03-04T13:17:58.902Z,19.88
2023-03-04T13:20:31.326Z,19.56
2023-03-04T13:23:01.087Z,19.90
2023-03-04T13:25:31.228Z,19.70
2023-03-04T13:28:02.715Z,19.51
2023-03-04T13:30:32.420Z,18.56
2023-03-04T13:33:18.823Z,19.46
2023-03-04T13:35:50.638Z,19.39
2023-03-04T13:38:22.265Z,17.62
2023-03-04T13:41:07.504Z,19.07
2023-03-04T13:43:53.139Z,18.05
2023-03-04T13:46:19.660Z,19.23
2023-03-04T13:48:49.299Z,19.24
2023-03-04T13:51:29.341Z,19.52
2023-03-04T13:53:56.677Z,18.37
2023-03-04T13:56:39.296Z,18.73
2023-03-04T13:59:13.234Z,19.05
2023-03-04T14:01:42.699Z,19.54
2023-03-04T14:04:15.491Z,19.51
2023-03-04T14:06:43.481Z,19.37
2023-03-04T14:09:14.951Z,18.50
2023-03-04T14:11:42.818Z,19.17
2023-03-04T14:14:16.758Z,19.15
2023-03-04T14:16:50.205Z,18.63
2023-03-04T14:19:38.333Z,18.36
2023-03-04T14:22:23.719Z,18.63
2023-03-04T14:24:57.355Z,18.43
2023-03-04T14:27:23.811Z,19.16
2023-03-04T14:29:57.693Z,17.85
2023-03-04T14:32:25.298Z,18.74
2023-03-04T14:34:57.624Z,17.80
2023-03-04T14:37:32.263Z,18.69
2023-03-04T14:39:59.779Z,18.28
2023-03-04T14:42:31.632Z,18.02
2023-03-04T14:44:59.090Z,18.15
2023-03-04T14:47:33.716Z,17.87
2023-03-04T14:50:00.316Z,18.22
2023-03-04T14:52:32.762Z,17.95
2023-03-04T14:55:00.047Z,17.85
2023-03-04T14:57:29.787Z,17.52
2023-03-04T14:59:56.339Z,17.84
2023-03-04T15:02:33.601Z,17.24
2023-03-04T15:05:01.627Z,17.82
2023-03-04T15:07:33.537Z,17.28
2023-03-04T15:10:02.088Z,17.18
2023-03-04T15:12:30.423Z,17.06
2023-03-04T15:15:20.252Z,17.32
2023-03-04T15:17:57.156Z,17.36
2023-03-04T15:20:28.017Z,16.95
2023-03-04T15:22:54.535Z,16.82
2023-03-04T15:25:21.560Z,17.20
2023-03-04T15:27:48.835Z,17.55
2023-03-04T15:30:20.128Z,17.33
2023-03-04T15:32:46.965Z,16.82
2023-03-04T15:35:14.239Z,17.08
2023-03-04T15:37:41.255Z,16.98
2023-03-04T15:40:22.482Z,16.91
2023-03-04T15:42:49.199Z,16.72
2023-03-04T15:45:29.588Z,16.24
2023-03-04T15:47:56.099Z,16.17
2023-03-04T15:50:26.653Z,16.48
2023-03-04T15:52:56.109Z,16.10
2023-03-04T15:55:22.556Z,15.77
2023-03-04T15:57:52.493Z,15.33
2023-03-04T16:00:19.143Z,14.42
2023-03-04T16:02:46.363Z,13.96
2023-03-04T16:05:12.983Z,13.43
2023-03-04T16:07:42.911Z,13.91
2023-03-04T16:10:30.741Z,14.01
2023-03-04T16:12:57.305Z,13.75
2023-03-04T16:15:28.231Z,14.41
2023-03-04T16:17:55.273Z,13.76
2023-03-04T16:20:24.703Z,13.46
2023-03-04T16:22:54.156Z,12.98
2023-03-04T16:25:21.039Z,13.03
2023-03-04T16:27:47.523Z,12.78
2023-03-04T16:30:15.748Z,12.53
2023-03-04T16:32:42.385Z,12.37
2023-03-04T16:35:09.451Z,12.43
2023-03-04T16:37:36.220Z,12.24
2023-03-04T16:40:04.569Z,12.24
2023-03-04T16:42:31.020Z,12.21
2023-03-04T16:44:57.596Z,12.19
2023-03-04T16:47:24.019Z,11.94
2023-03-04T16:49:50.896Z,11.71
2023-03-04T16:52:25.371Z,11.54
2023-03-04T16:54:52.196Z,11.48
2023-03-04T16:57:19.304Z,11.05
2023-03-04T16:59:46.017Z,10.78
2023-03-04T17:02:17.082Z,10.57
2023-03-04T17:04:44.696Z,10.57
2023-03-04T17:07:11.736Z,10.39
2023-03-04T17:09:38.249Z,10.31
2023-03-04T17:12:08.256Z,10.02
2023-03-04T17:14:34.869Z,9.84
2023-03-04T17:17:02.019Z,9.87
2023-03-04T17:19:28.554Z,9.94
2023-03-04T17:21:58.828Z,9.70
2023-03-04T17:24:25.638Z,9.51
2023-03-04T17:26:52.307Z,9.15
2023-03-04T17:29:18.797Z,9.12
2023-03-04T17:31:45.332Z,9.10
2023-03-04T17:34:11.900Z,8.95
2023-03-04T17:36:38.396Z,8.62
2023-03-04T17:39:06.222Z,9.06
2023-03-04T17:41:34.360Z,8.89
2023-03-04T17:44:02.800Z,8.80
2023-03-04T17:46:29.502Z,8.51
2023-03-04T17:48:57.152Z,8.67
2023-03-04T17:51:49.973Z,8.70
2023-03-04T17:54:16.671Z,8.22
2023-03-04T17:56:46.826Z,8.03
2023-03-04T17:59:14.512Z,8.17
2023-03-04T18:01:41.162Z,8.13
2023-03-04T18:04:08.339Z,8.07
2023-03-04T18:06:34.822Z,7.90
2023-03-04T18:09:01.314Z,7.86
2023-03-04T18:11:27.834Z,7.87
2023-03-04T18:13:56.535Z,7.90
2023-03-04T18:16:24.899Z,7.94
2023-03-04T18:18:51.637Z,7.66
2023-03-04T18:21:18.920Z,7.77
2023-03-04T18:23:45.939Z,7.69
2023-03-04T18:26:12.955Z,7.67
2023-03-04T18:28:39.547Z,7.50
2023-03-04T18:31:06.046Z,7.53
2023-03-04T18:33:32.822Z,7.52
2023-03-04T18:36:00.288Z,7.50
2023-03-04T18:38:26.935Z,7.72
2023-03-04T18:40:57.584Z,7.65
2023-03-04T18:43:24.021Z,7.20
2023-03-04T18:45:59.111Z,6.84
2023-03-04T18:48:25.708Z,6.84
2023-03-04T18:50:53.816Z,7.02
2023-03-04T18:53:20.253Z,6.98
2023-03-04T18:55:46.740Z,7.51
2023-03-04T18:58:13.169Z,7.24
2023-03-04T19:00:39.640Z,7.32
2023-03-04T19:03:11.755Z,7.43
2023-03-04T19:05:38.349Z,7.49
2023-03-04T19:08:06.735Z,7.58
2023-03-04T19:10:33.302Z,7.61
2023-03-04T19:12:59.772Z,7.60
2023-03-04T19:15:26.629Z,7.57
2023-03-04T19:17:53.081Z,7.44
2023-03-04T19:20:19.655Z,7.38
2023-03-04T19:22:46.200Z,6.95
2023-03-04T19:25:12.974Z,6.88
2023-03-04T19:27:39.556Z,6.89
2023-03-04T19:30:06.663Z,7.04
2023-03-04T19:32:33.325Z,6.82
2023-03-04T19:34:59.871Z,6.75
2023-03-04T19:37:26.466Z,6.72
2023-03-04T19:39:55.697Z,6.72
2023-03-04T19:42:23.393Z,6.61
2023-03-04T19:44:49.829Z,6.60
2023-03-04T19:47:16.292Z,6.72
2023-03-04T19:49:42.709Z,6.33
2023-03-04T19:52:09.247Z,6.38
2023-03-04T19:54:35.921Z,6.30
2023-03-04T19:57:02.400Z,6.30
2023-03-04T19:59:28.873Z,6.44
2023-03-04T20:01:55.426Z,6.60
2023-03-04T20:04:22.127Z,6.68
2023-03-04T20:06:50.128Z,6.75
2023-03-04T20:09:17.437Z,6.87
2023-03-04T20:11:57.340Z,6.96
2023-03-04T20:14:25.604Z,7.04
2023-03-04T20:16:52.199Z,7.02
2023-03-04T20:19:18.695Z,7.00
2023-03-04T20:21:45.148Z,6.98
2023-03-04T20:24:11.733Z,7.01
2023-03-04T20:26:39.469Z,7.02
2023-03-04T20:29:05.944Z,7.00
2023-03-04T20:31:36.007Z,6.98
2023-03-04T20:34:02.547Z,7.05
2023-03-04T20:36:30.369Z,7.06
2023-03-04T20:39:02.507Z,6.92
2023-03-04T20:41:31.242Z,6.94
2023-03-04T20:43:58.046Z,6.80
2023-03-04T20:46:27.486Z,6.70
2023-03-04T20:48:54.437Z,6.89
2023-03-04T20:51:20.965Z,6.57
2023-03-04T20:53:47.617Z,6.54
2023-03-04T20:56:14.200Z,6.34
2023-03-04T20:58:40.691Z,6.34
2023-03-04T21:01:07.147Z,6.27
2023-03-04T21:03:33.568Z,6.07
2023-03-04T21:06:04.145Z,5.77
2023-03-04T21:08:30.954Z,5.76
2023-03-04T21:10:57.451Z,5.65
2023-03-04T21:13:26.770Z,5.57
2023-03-04T21:15:53.260Z,5.43
2023-03-04T21:18:19.784Z,5.53
2023-03-04T21:20:48.393Z,5.36
2023-03-04T21:23:14.886Z,5.35
2023-03-04T21:25:41.525Z,5.18
2023-03-04T21:28:08.029Z,5.11
2023-03-04T21:30:34.442Z,4.90
2023-03-04T21:33:01.009Z,4.68
2023-03-04T21:35:27.608Z,4.61
2023-03-04T21:37:54.233Z,4.80
2023-03-04T21:40:20.840Z,4.89
2023-03-04T21:42:47.284Z,4.91
2023-03-04T21:45:13.794Z,4.68
2023-03-04T21:47:40.350Z,4.37
2023-03-04T21:50:07.049Z,4.31
2023-03-04T21:52:33.624Z,4.31
2023-03-04T21:55:00.640Z,4.27
2023-03-04T21:57:27.082Z,4.97
2023-03-04T21:59:53.566Z,4.40
2023-03-04T22:02:21.387Z,4.14
2023-03-04T22:04:48.369Z,4.42
2023-03-04T22:07:15.008Z,4.28
2023-03-04T22:09:41.503Z,4.15
2023-03-04T22:12:08.116Z,3.71
2023-03-04T22:14:34.579Z,3.58
2023-03-04T22:17:01.105Z,3.57
2023-03-04T22:19:31.313Z,3.63
2023-03-04T22:21:59.094Z,3.57
2023-03-04T22:24:26.277Z,3.21
2023-03-04T22:26:52.775Z,3.36
2023-03-04T22:29:19.310Z,3.33
2023-03-04T22:31:45.974Z,3.27
2023-03-04T22:34:13.497Z,3.49
2023-03-04T22:36:41.773Z,3.57
2023-03-04T22:39:09.568Z,3.57
2023-03-04T22:41:36.083Z,3.59
2023-03-04T22:44:02.680Z,3.61
2023-03-04T22:46:30.390Z,3.60
2023-03-04T22:48:58.311Z,3.52
2023-03-04T22:51:25.031Z,3.58
2023-03-04T22:53:51.809Z,3.66
2023-03-04T22:56:19.162Z,3.63
2023-03-04T22:58:46.536Z,3.45
2023-03-04T23:01:14.065Z,3.59
2023-03-04T23:03:41.722Z,3.43
2023-03-04T23:06:08.286Z,3.42
2023-03-04T23:08:35.872Z,3.34
2023-03-04T23:11:02.928Z,3.23
2023-03-04T23:13:29.469Z,2.83
2023-03-04T23:15:55.900Z,2.87
2023-03-04T23:18:22.417Z,2.89
2023-03-04T23:20:48.936Z,2.87
2023-03-04T23:23:15.436Z,2.81
2023-03-04T23:25:41.971Z,2.76
2023-03-04T23:28:08.464Z,2.51
2023-03-04T23:30:35.423Z,2.51
2023-03-04T23:33:01.915Z,2.65
2023-03-04T23:35:28.379Z,2.79
2023-03-04T23:37:54.908Z,2.83
2023-03-04T23:40:21.461Z,2.79
2023-03-04T23:42:47.884Z,2.64
2023-03-04T23:45:14.302Z,2.57
2023-03-04T23:47:40.744Z,2.50
2023-03-04T23:50:08.791Z,2.41
2023-03-04T23:52:35.439Z,2.32
2023-03-04T23:55:01.909Z,2.17
2023-03-04T23:57:28.432Z,2.32
2023-03-04T23:59:54.875Z,2.27
